Time;durP1;ratioP1;P1;durP2;ratioP2;P2;SDS_P1;SDS_P2;PMS_P1;PMS_P2;Temp;Humidity;BMP_temperature;BMP_pressure;BME280_temperature;BME280_humidity;BME280_pressure;Samples;Min_cycle;Max_cycle;Signal;HPM_P1;HPM_P2
2022/12/31 00:00:30;;;;;;;11.30;3.25;;;;;;;;;;4870455;29;20494;-88
2022/12/31 00:02:56;;;;;;;17.63;3.70;;;;;;;;;;4886082;29;20092;-88
2022/12/31 00:05:23;;;;;;;15.43;2.67;;;;;;;;;;4886180;29;20052;-89
2022/12/31 00:07:49;;;;;;;10.27;3.17;;;;;;;;;;4885961;29;20048;-88
2022/12/31 00:10:15;;;;;;;11.93;3.47;;;;;;;;;;4886989;29;20413;-89
2022/12/31 00:12:41;;;;;;;16.85;3.10;;;;;;;;;;4870346;29;20134;-89
2022/12/31 00:15:08;;;;;;;13.10;2.88;;;;;;;;;;4885928;29;20052;-89
2022/12/31 00:17:34;;;;;;;14.60;3.45;;;;;;;;;;4885607;29;20122;-89
2022/12/31 00:20:00;;;;;;;8.00;3.85;;;;;;;;;;4901434;29;20135;-89
2022/12/31 00:22:26;;;;;;;8.20;2.78;;;;;;;;;;4886374;29;20110;-89
2022/12/31 00:24:52;;;;;;;13.23;3.63;;;;;;;;;;4870028;29;20139;-88
2022/12/31 00:27:21;;;;;;;10.90;3.55;;;;;;;;;;4870152;29;20063;-88
2022/12/31 00:29:47;;;;;;;9.00;3.20;;;;;;;;;;4901029;29;20060;-88
2022/12/31 00:32:13;;;;;;;8.23;3.08;;;;;;;;;;4885284;29;20052;-88
2022/12/31 00:34:39;;;;;;;16.85;3.13;;;;;;;;;;4869972;29;20476;-88
2022/12/31 00:37:05;;;;;;;11.43;3.42;;;;;;;;;;4885429;29;20413;-88
2022/12/31 00:39:31;;;;;;;16.75;3.97;;;;;;;;;;4885019;29;20111;-88
2022/12/31 00:41:57;;;;;;;10.55;2.38;;;;;;;;;;4885238;29;20091;-88
2022/12/31 00:44:23;;;;;;;10.27;3.70;;;;;;;;;;4884994;29;20125;-88
2022/12/31 00:46:49;;;;;;;12.40;4.22;;;;;;;;;;4869641;29;20161;-88
2022/12/31 00:49:15;;;;;;;12.70;3.78;;;;;;;;;;4884789;29;20524;-88
2022/12/31 00:51:42;;;;;;;15.73;4.88;;;;;;;;;;4869386;29;20052;-88
2022/12/31 00:54:08;;;;;;;12.43;4.03;;;;;;;;;;4884818;29;20052;-88
2022/12/31 00:56:35;;;;;;;14.90;4.28;;;;;;;;;;4884734;29;20068;-88
2022/12/31 00:59:01;;;;;;;15.50;3.58;;;;;;;;;;4869540;29;20485;-88
2022/12/31 01:01:32;;;;;;;15.02;4.40;;;;;;;;;;4884972;29;20056;-88
2022/12/31 01:04:00;;;;;;;19.95;4.30;;;;;;;;;;4884585;29;20148;-88
2022/12/31 01:06:26;;;;;;;22.67;4.63;;;;;;;;;;4899768;29;20512;-88
2022/12/31 01:08:54;;;;;;;22.95;4.18;;;;;;;;;;4869441;29;20052;-88
2022/12/31 01:11:23;;;;;;;20.02;4.75;;;;;;;;;;4884522;29;20461;-88
2022/12/31 01:13:52;;;;;;;16.85;4.07;;;;;;;;;;4900077;29;20056;-88
2022/12/31 01:16:20;;;;;;;24.63;4.55;;;;;;;;;;4884836;29;20048;-88
2022/12/31 01:18:46;;;;;;;19.48;4.30;;;;;;;;;;4884519;29;20056;-89
2022/12/31 01:21:12;;;;;;;27.20;4.68;;;;;;;;;;4869032;29;20083;-89
2022/12/31 01:23:38;;;;;;;11.00;4.47;;;;;;;;;;4899998;29;20098;-87
2022/12/31 01:26:06;;;;;;;16.15;3.88;;;;;;;;;;4884397;29;20056;-88
2022/12/31 01:28:32;;;;;;;21.55;5.45;;;;;;;;;;4899878;29;20450;-88
2022/12/31 01:30:59;;;;;;;15.40;4.35;;;;;;;;;;4884690;29;20056;-89
2022/12/31 01:33:25;;;;;;;17.05;4.68;;;;;;;;;;4900137;29;20099;-89
2022/12/31 01:35:51;;;;;;;17.50;4.65;;;;;;;;;;4885214;29;20060;-89
2022/12/31 01:38:17;;;;;;;11.52;4.45;;;;;;;;;;4869047;29;20055;-89
2022/12/31 01:40:43;;;;;;;12.90;3.55;;;;;;;;;;4884421;29;20099;-89
2022/12/31 01:43:15;;;;;;;10.05;3.30;;;;;;;;;;4885185;29;20059;-89
2022/12/31 01:45:41;;;;;;;12.80;3.67;;;;;;;;;;4884510;29;20044;-89
2022/12/31 01:48:10;;;;;;;10.18;3.15;;;;;;;;;;4899778;29;20147;-90
2022/12/31 01:50:38;;;;;;;18.05;4.60;;;;;;;;;;4884152;29;20088;-90
2022/12/31 01:53:06;;;;;;;13.60;3.90;;;;;;;;;;4884338;29;20086;-90
2022/12/31 01:55:33;;;;;;;16.42;4.28;;;;;;;;;;4884650;29;20047;-90
2022/12/31 01:58:07;;;;;;;10.70;3.90;;;;;;;;;;4884419;29;20056;-90
2022/12/31 02:00:34;;;;;;;8.90;3.50;;;;;;;;;;4884544;29;20047;-89
2022/12/31 02:03:00;;;;;;;19.13;3.83;;;;;;;;;;4884548;29;20466;-90
2022/12/31 02:05:30;;;;;;;14.95;3.95;;;;;;;;;;4868669;29;20058;-89
2022/12/31 02:07:57;;;;;;;10.80;4.05;;;;;;;;;;4884356;29;20454;-88
2022/12/31 02:10:23;;;;;;;15.65;4.13;;;;;;;;;;4900094;29;20052;-89
2022/12/31 02:12:49;;;;;;;13.48;4.32;;;;;;;;;;4868647;29;20059;-88
2022/12/31 02:15:16;;;;;;;9.85;3.45;;;;;;;;;;4884156;29;20048;-88
2022/12/31 02:17:45;;;;;;;9.95;3.90;;;;;;;;;;4883998;29;20059;-87
2022/12/31 02:20:30;;;;;;;15.57;4.28;;;;;;;;;;4887794;29;20572;-88
2022/12/31 02:22:59;;;;;;;12.63;3.38;;;;;;;;;;4903412;29;20063;-88
2022/12/31 02:25:44;;;;;;;10.88;3.63;;;;;;;;;;4887423;29;20094;-88
2022/12/31 02:28:10;;;;;;;13.65;3.72;;;;;;;;;;4887291;29;20064;-87
2022/12/31 02:30:36;;;;;;;10.63;3.65;;;;;;;;;;4887504;29;20118;-87
2022/12/31 02:33:20;;;;;;;11.77;3.30;;;;;;;;;;4887754;29;20059;-87
2022/12/31 02:35:52;;;;;;;8.48;3.13;;;11.40;99.90;;;;;;4887599;29;20449;-87
2022/12/31 02:38:29;;;;;;;7.93;3.30;;;;;;;;;;4902737;29;20087;-88
2022/12/31 02:40:56;;;;;;;8.18;2.88;;;;;;;;;;4887344;29;20052;-88
2022/12/31 02:43:22;;;;;;;7.38;2.60;;;;;;;;;;4887293;29;20056;-88
2022/12/31 02:46:04;;;;;;;11.85;3.10;;;;;;;;;;4886937;29;20052;-88
2022/12/31 02:48:40;;;;;;;9.93;3.35;;;11.50;99.90;;;;;;4886989;29;20052;-88
2022/12/31 02:51:16;;;;;;;8.27;2.63;;;;;;;;;;4887209;29;20084;-88
2022/12/31 02:54:16;;;;;;;7.55;2.92;;;11.50;99.90;;;;;;4886773;29;20123;-88
2022/12/31 02:56:48;;;;;;;7.82;3.28;;;;;;;;;;4886872;29;20139;-90
2022/12/31 03:02:13;;;;;;;10.15;2.55;;;;;;;;;;4902661;29;20059;-90
2022/12/31 03:04:54;;;;;;;11.48;3.13;;;;;;;;;;4887130;29;20055;-90
2022/12/31 03:07:27;;;;;;;9.95;2.80;;;;;;;;;;4887495;29;20060;-90
2022/12/31 03:09:54;;;;;;;11.95;3.13;;;;;;;;;;4902556;29;20056;-90
2022/12/31 03:15:18;;;;;;;5.60;1.75;;;;;;;;;;4902703;29;20417;-90
2022/12/31 03:17:47;;;;;;;10.88;2.30;;;;;;;;;;4902088;29;20510;-90
2022/12/31 03:22:57;;;;;;;6.45;2.58;;;;;;;;;;4889644;29;20058;-91
2022/12/31 03:25:33;;;;;;;7.13;2.65;;;;;;;;;;4903009;29;20060;-90
2022/12/31 03:28:00;;;;;;;6.45;2.10;;;;;;;;;;4872516;29;20112;-90
2022/12/31 03:30:27;;;;;;;6.63;2.50;;;;;;;;;;4886703;29;20052;-90
2022/12/31 03:32:55;;;;;;;8.63;2.70;;;;;;;;;;4871194;29;20135;-91
2022/12/31 03:35:21;;;;;;;7.15;2.35;;;;;;;;;;4887631;29;20084;-90
2022/12/31 03:37:48;;;;;;;2.95;1.75;;;;;;;;;;4870951;29;20564;-91
2022/12/31 03:40:14;;;;;;;7.10;2.17;;;;;;;;;;4902220;29;20052;-91
2022/12/31 03:42:41;;;;;;;10.35;2.35;;;;;;;;;;4901763;29;20527;-91
2022/12/31 03:45:07;;;;;;;3.03;1.48;;;;;;;;;;4870930;29;20048;-90
2022/12/31 03:47:35;;;;;;;4.55;1.80;;;;;;;;;;4886560;29;20114;-90
2022/12/31 03:50:01;;;;;;;3.72;2.20;;;;;;;;;;4901886;29;20079;-90
2022/12/31 03:52:27;;;;;;;5.25;1.55;;;;;;;;;;4870699;29;20143;-90
2022/12/31 03:54:53;;;;;;;2.20;1.42;;;;;;;;;;4870591;29;20094;-91
2022/12/31 03:57:19;;;;;;;3.80;1.73;;;;;;;;;;4886481;29;20048;-88
2022/12/31 03:59:45;;;;;;;4.20;1.60;;;;;;;;;;4901330;29;20048;-88
2022/12/31 04:02:11;;;;;;;7.65;2.00;;;;;;;;;;4870254;29;20112;-88
2022/12/31 04:04:37;;;;;;;6.88;1.52;;;;;;;;;;4870367;29;20551;-88
2022/12/31 04:07:03;;;;;;;5.40;1.63;;;;;;;;;;4870180;29;20541;-88
2022/12/31 04:09:29;;;;;;;5.80;1.55;;;;;;;;;;4870801;29;20067;-87
2022/12/31 04:11:55;;;;;;;4.60;1.80;;;;;;;;;;4885674;29;20086;-88
2022/12/31 04:14:21;;;;;;;4.90;1.55;;;;;;;;;;4870141;29;20055;-88
2022/12/31 04:16:47;;;;;;;2.78;1.38;;;;;;;;;;4885380;29;20052;-88
2022/12/31 04:19:13;;;;;;;10.05;2.38;;;;;;;;;;4869930;29;20060;-88
2022/12/31 04:21:40;;;;;;;6.53;1.50;;;;;;;;;;4870222;29;20052;-88
2022/12/31 04:24:06;;;;;;;2.72;1.45;;;;;;;;;;4900896;29;20059;-88
2022/12/31 04:26:32;;;;;;;12.10;2.05;;;;;;;;;;4900870;29;20087;-88
2022/12/31 04:28:58;;;;;;;8.02;2.10;;;;;;;;;;4885796;29;20064;-88
2022/12/31 04:31:24;;;;;;;3.92;1.50;;;;;;;;;;4885415;29;20461;-88
2022/12/31 04:33:50;;;;;;;6.70;1.60;;;;;;;;;;4885395;29;20052;-88
2022/12/31 04:36:17;;;;;;;4.55;1.77;;;;;;;;;;4900653;29;20060;-88
2022/12/31 04:38:43;;;;;;;5.72;2.05;;;;;;;;;;4901039;29;20099;-87
2022/12/31 04:41:15;;;;;;;5.80;1.65;;;;;;;;;;4885059;29;20112;-88
2022/12/31 04:43:42;;;;;;;3.85;2.47;;;;;;;;;;4884916;29;20056;-88
2022/12/31 04:46:08;;;;;;;3.65;1.65;;;;;;;;;;4884921;29;20143;-88
2022/12/31 04:48:34;;;;;;;5.20;1.83;;;;;;;;;;4869554;29;20056;-89
2022/12/31 04:51:00;;;;;;;6.35;1.90;;;;;;;;;;4885205;29;20116;-88
2022/12/31 04:53:26;;;;;;;6.88;2.38;;;;;;;;;;4869283;29;20064;-88
2022/12/31 04:55:52;;;;;;;9.82;2.58;;;;;;;;;;4884682;29;20059;-88
2022/12/31 04:58:18;;;;;;;4.05;1.70;;;;;;;;;;4869334;29;20056;-88
2022/12/31 05:00:48;;;;;;;8.43;2.22;;;;;;;;;;4884666;29;20100;-88
2022/12/31 05:03:14;;;;;;;5.15;2.15;;;;;;;;;;4885264;29;20060;-87
2022/12/31 05:05:43;;;;;;;7.15;2.10;;;;;;;;;;4884969;29;20490;-87
2022/12/31 05:08:13;;;;;;;5.50;1.80;;;;;;;;;;4869614;29;20055;-88
2022/12/31 05:10:43;;;;;;;7.03;2.75;;;;;;;;;;4884521;29;20059;-88
2022/12/31 05:13:09;;;;;;;5.30;2.10;;;;;;;;;;4900654;29;20509;-87
2022/12/31 05:15:35;;;;;;;6.15;2.30;;;;;;;;;;4900229;29;20405;-88
2022/12/31 05:18:01;;;;;;;4.90;2.08;;;;;;;;;;4899871;29;20107;-88
2022/12/31 05:20:28;;;;;;;4.00;2.15;;;;;;;;;;4868925;29;20055;-88
2022/12/31 05:22:54;;;;;;;5.97;2.53;;;;;;;;;;4884451;29;20059;-88
2022/12/31 05:25:20;;;;;;;9.15;2.97;;;;;;;;;;4869030;29;20115;-88
2022/12/31 05:27:46;;;;;;;5.47;2.63;;;;;;;;;;4869149;29;20063;-88
2022/12/31 05:30:12;;;;;;;5.78;2.40;;;;;;;;;;4869142;29;20044;-88
2022/12/31 05:32:38;;;;;;;8.15;3.00;;;;;;;;;;4884725;29;20064;-88
2022/12/31 05:35:06;;;;;;;3.85;2.47;;;;;;;;;;4884971;29;20086;-88
2022/12/31 05:37:32;;;;;;;6.05;3.00;;;;;;;;;;4884371;29;20059;-87
2022/12/31 05:39:58;;;;;;;6.03;2.63;;;;;;;;;;4869675;29;20052;-90
2022/12/31 05:42:24;;;;;;;17.98;3.22;;;;;;;;;;4869066;29;20056;-90
2022/12/31 05:44:50;;;;;;;11.55;3.13;;;;;;;;;;4884606;29;20379;-90
2022/12/31 05:47:16;;;;;;;5.43;3.00;;;;;;;;;;4884273;29;20044;-89
2022/12/31 05:49:42;;;;;;;12.80;2.40;;;;;;;;;;4868968;29;20055;-90
2022/12/31 05:52:08;;;;;;;7.57;2.78;;;;;;;;;;4900612;29;20544;-90
2022/12/31 05:54:35;;;;;;;11.70;2.33;;;;;;;;;;4872766;29;20060;-89
2022/12/31 05:57:01;;;;;;;6.75;1.92;;;;;;;;;;4872806;29;20048;-90
2022/12/31 05:59:27;;;;;;;5.28;2.47;;;;;;;;;;4887994;29;20059;-90
2022/12/31 06:01:53;;;;;;;7.03;2.17;;;;;;;;;;4888018;29;20091;-89
2022/12/31 06:04:19;;;;;;;5.72;1.98;;;;;;;;;;4872846;29;20431;-90
2022/12/31 06:06:46;;;;;;;5.60;2.22;;;;;;;;;;4872741;29;20071;-89
2022/12/31 06:09:12;;;;;;;3.30;1.58;;;;;;;;;;4872414;29;20113;-90
2022/12/31 06:11:38;;;;;;;3.42;1.83;;;;;;;;;;4872158;29;20103;-89
2022/12/31 06:14:04;;;;;;;3.47;1.98;;;;;;;;;;4872376;29;20059;-89
2022/12/31 06:16:30;;;;;;;5.47;1.50;;;;;;;;;;4888146;29;20135;-89
2022/12/31 06:18:56;;;;;;;2.15;1.60;;;;;;;;;;4872185;29;20057;-89
2022/12/31 06:21:22;;;;;;;3.85;1.83;;;;;;;;;;4887905;29;20091;-89
2022/12/31 06:23:48;;;;;;;3.05;2.13;;;;;;;;;;4887510;29;20146;-89
2022/12/31 06:26:15;;;;;;;2.38;1.75;;;;;;;;;;4887512;29;20425;-90
2022/12/31 06:28:41;;;;;;;2.72;1.88;;;;;;;;;;4903329;29;20475;-89
2022/12/31 06:31:08;;;;;;;6.10;2.13;;;;;;;;;;4887401;29;20141;-89
2022/12/31 06:33:35;;;;;;;4.47;2.47;;;;;;;;;;4887840;29;20383;-89
2022/12/31 06:36:02;;;;;;;3.35;1.83;;;;;;;;;;4887546;29;20474;-89
2022/12/31 06:38:30;;;;;;;4.63;1.95;;;;;;;;;;4887228;29;20473;-89
2022/12/31 06:40:56;;;;;;;3.85;1.77;;;;;;;;;;4887240;29;20120;-90
2022/12/31 06:43:22;;;;;;;8.73;2.30;;;;;;;;;;4871783;29;20151;-89
2022/12/31 06:45:48;;;;;;;5.40;2.25;;;;;;;;;;4887221;29;20497;-89
2022/12/31 06:48:14;;;;;;;6.10;2.00;;;;;;;;;;4902703;29;20059;-90
2022/12/31 06:50:40;;;;;;;8.65;2.67;;;;;;;;;;4871557;29;20096;-90
2022/12/31 06:53:07;;;;;;;2.65;2.42;;;;;;;;;;4887082;29;20063;-90
2022/12/31 06:55:33;;;;;;;3.40;2.75;;;;;;;;;;4872348;29;20063;-90
2022/12/31 06:57:59;;;;;;;5.22;2.80;;;;;;;;;;4871950;29;20417;-89
2022/12/31 07:00:25;;;;;;;2.70;2.35;;;;;;;;;;4887331;29;20445;-90
2022/12/31 07:02:59;;;;;;;3.40;3.10;;;;;;;;;;4887147;29;20062;-90
2022/12/31 07:05:38;;;;;;;3.22;2.92;;;;;;;;;;4886338;29;20052;-90
2022/12/31 07:08:04;;;;;;;4.70;3.42;;;;;;;;;;4887081;29;20417;-89
2022/12/31 07:10:34;;;;;;;4.88;4.10;;;;;;;;;;4902504;29;20052;-90
2022/12/31 07:13:12;;;;;;;4.97;3.25;;;;;;;;;;4887072;29;20108;-89
2022/12/31 07:15:41;;;;;;;6.10;3.67;;;;;;;;;;4886741;29;20048;-90
2022/12/31 07:18:19;;;;;;;7.47;3.20;;;;;;;;;;4886583;29;20092;-89
2022/12/31 07:20:46;;;;;;;4.85;3.15;;;;;;;;;;4886525;29;20048;-89
2022/12/31 07:23:12;;;;;;;4.43;2.70;;;;;;;;;;4886925;29;20454;-90
2022/12/31 07:25:40;;;;;;;3.50;2.50;;;;;;;;;;4886769;29;20090;-89
2022/12/31 07:28:06;;;;;;;5.07;2.80;;;;;;;;;;4902151;29;20497;-90
2022/12/31 07:30:42;;;;;;;2.78;2.55;;;;;;;;;;4902288;29;20130;-89
2022/12/31 07:33:27;;;;;;;3.15;2.45;;;;;;;;;;4902002;29;20505;-90
2022/12/31 07:35:53;;;;;;;3.78;2.40;;;;;;;;;;4886519;29;20395;-89
2022/12/31 07:38:28;;;;;;;5.65;2.72;;;;;;;;;;4886008;29;20417;-89
2022/12/31 07:40:54;;;;;;;3.40;2.67;;;;;;;;;;4886076;29;20517;-89
2022/12/31 07:43:30;;;;;;;4.43;2.53;;;;;;;;;;4901556;29;20402;-90
2022/12/31 07:46:29;;;;;;;3.60;2.67;;;10.50;99.90;;;;;;4886110;29;20548;-89
2022/12/31 07:48:55;;;;;;;2.65;2.45;;;;;;;;;;4886021;29;20056;-89
2022/12/31 07:51:22;;;;;;;2.58;2.38;;;;;;;;;;4885765;29;20565;-89
2022/12/31 07:53:48;;;;;;;3.40;2.30;;;;;;;;;;4885606;29;20059;-89
2022/12/31 07:56:14;;;;;;;2.50;2.30;;;;;;;;;;4886549;29;20067;-89
2022/12/31 07:58:40;;;;;;;2.60;1.90;;;;;;;;;;4885731;29;20091;-88
2022/12/31 08:01:11;;;;;;;3.47;2.38;;;;;;;;;;4901630;29;20056;-88
2022/12/31 08:03:40;;;;;;;3.58;2.22;;;;;;;;;;4885491;29;20064;-88
2022/12/31 08:06:13;;;;;;;2.50;2.17;;;;;;;;;;4885844;29;20067;-88
2022/12/31 08:08:39;;;;;;;2.25;2.05;;;;;;;;;;4885874;29;20071;-88
2022/12/31 08:11:11;;;;;;;2.35;2.15;;;;;;;;;;4886220;29;20052;-88
2022/12/31 08:13:38;;;;;;;3.80;2.40;;;;;;;;;;4885806;29;20056;-89
2022/12/31 08:16:04;;;;;;;2.67;2.47;;;;;;;;;;4884730;29;20044;-88
2022/12/31 08:18:31;;;;;;;3.10;2.67;;;;;;;;;;4885451;29;20473;-88
2022/12/31 08:21:14;;;;;;;3.42;3.13;;;;;;;;;;4870038;29;20040;-88
2022/12/31 08:23:43;;;;;;;5.30;4.70;;;;;;;;;;4885209;29;20092;-88
2022/12/31 08:26:15;;;;;;;6.00;4.55;;;;;;;;;;4900762;29;20056;-88
2022/12/31 08:28:44;;;;;;;4.10;3.80;;;;;;;;;;4900838;29;20048;-88
2022/12/31 08:31:13;;;;;;;4.07;2.78;;;;;;;;;;4885466;29;20056;-87
2022/12/31 08:33:56;;;;;;;3.08;2.55;;;;;;;;;;4885114;29;20063;-87
2022/12/31 08:36:32;;;;;;;4.00;2.65;;;;;;;;;;4885099;29;20059;-88
2022/12/31 08:39:01;;;;;;;4.05;2.65;;;;;;;;;;4884986;29;20056;-87
2022/12/31 08:41:28;;;;;;;2.50;2.20;;;;;;;;;;4885154;29;20509;-87
2022/12/31 08:43:57;;;;;;;1.90;1.80;;;;;;;;;;4885584;29;20098;-88
2022/12/31 08:46:27;;;;;;;1.90;1.80;;;;;;;;;;4900815;29;20056;-87
2022/12/31 08:48:53;;;;;;;3.90;2.70;;;;;;;;;;4884805;29;20564;-87
2022/12/31 08:51:24;;;;;;;2.60;2.40;;;10.80;99.90;;;;;;4885126;29;20071;-87
2022/12/31 08:53:51;;;;;;;2.60;2.40;;;;;;;;;;4884789;29;20074;-88
2022/12/31 08:56:41;;;;;;;2.88;2.67;;;11.10;99.90;;;;;;4884775;29;20052;-87
2022/12/31 08:59:07;;;;;;;3.40;3.10;;;;;;;;;;4884812;29;20056;-87
2022/12/31 09:01:40;;;;;;;3.25;2.95;;;;;;;;;;4884727;29;20052;-87
2022/12/31 09:04:27;;;;;;;3.22;2.92;;;;;;;;;;4884555;29;20052;-87
2022/12/31 09:07:01;;;;;;;3.30;3.00;;;;;;;;;;4884800;29;20052;-87
2022/12/31 09:09:33;;;;;;;3.10;2.90;;;;;;;;;;4884589;29;20131;-87
2022/12/31 09:12:14;;;;;;;3.50;2.90;;;;;;;;;;4884619;29;20505;-87
2022/12/31 09:14:48;;;;;;;3.08;2.67;;;;;;;;;;4885200;29;20052;-87
2022/12/31 09:17:32;;;;;;;;;;;11.30;99.90;;;;;;4884785;29;20171;-88
2022/12/31 09:19:58;;;;;;;2.97;2.67;;;;;;;;;;4884432;29;19962;-87
2022/12/31 09:22:24;;;;;;;2.95;2.75;;;;;;;;;;4916983;29;20056;-88
2022/12/31 09:24:51;;;;;;;2.70;2.50;;;;;;;;;;4884779;29;20409;-87
2022/12/31 09:27:17;;;;;;;3.60;2.97;;;;;;;;;;4868745;29;20056;-87
2022/12/31 09:29:49;;;;;;;2.88;1.98;;;;;;;;;;4884338;29;20059;-87
2022/12/31 09:32:15;;;;;;;5.78;1.90;;;;;;;;;;4884347;29;20048;-87
2022/12/31 09:34:45;;;;;;;3.13;2.17;;;;;;;;;;4884229;29;20059;-87
2022/12/31 09:37:42;;;;;;;4.35;1.73;;;12.10;99.90;;;;;;4884176;29;20052;-86
2022/12/31 09:40:42;;;;;;;3.63;2.25;;;11.90;99.90;;;;;;4885117;29;20052;-86
2022/12/31 09:43:14;;;;;;;1.63;1.52;;;;;;;;;;4884285;29;20056;-87
2022/12/31 09:46:17;;;;;;;2.25;1.75;;;12.20;99.90;;;;;;4900433;29;20139;-86
2022/12/31 09:48:49;;;;;;;3.22;2.05;;;;;;;;;;4900120;29;20056;-87
2022/12/31 09:51:30;;;;;;;1.30;1.13;;;12.10;99.90;;;;;;4884055;29;20048;-87
2022/12/31 09:54:06;;;;;;;2.53;1.40;;;;;;;;;;4884300;29;20056;-87
2022/12/31 09:56:38;;;;;;;4.53;1.58;;;12.50;99.90;;;;;;4884471;29;20056;-87
2022/12/31 09:59:04;;;;;;;3.17;1.55;;;;;;;;;;4883950;29;20476;-87
2022/12/31 10:01:36;;;;;;;3.38;1.70;;;;;;;;;;4884456;29;20055;-87
2022/12/31 10:04:21;;;;;;;3.75;1.20;;;12.60;99.90;;;;;;4884160;29;20059;-87
2022/12/31 10:06:54;;;;;;;3.90;1.08;;;12.60;99.90;;;;;;4883985;29;20052;-87
2022/12/31 10:09:35;;;;;;;3.47;1.40;;;12.40;99.90;;;;;;4884184;29;20058;-87
2022/12/31 10:12:23;;;;;;;3.22;1.35;;;;;;;;;;4884210;29;20052;-87
2022/12/31 10:15:10;;;;;;;3.20;1.40;;;12.50;99.90;;;;;;4884336;29;20408;-87
2022/12/31 10:17:45;;;;;;;5.18;1.25;;;;;;;;;;4883841;29;20056;-89
2022/12/31 10:20:14;;;;;;;11.23;2.13;;;;;;;;;;4899760;29;20458;-89
2022/12/31 10:23:11;;;;;;;8.55;1.50;;;12.50;99.90;;;;;;4884009;29;20506;-89
2022/12/31 10:25:50;;;;;;;3.72;1.63;;;;;;;;;;4884131;29;20397;-88
2022/12/31 10:28:28;;;;;;;7.13;1.77;;;;;;;;;;4883877;29;20060;-89
2022/12/31 10:31:10;;;;;;;5.15;1.98;;;;;;;;;;4884221;29;20103;-88
2022/12/31 10:33:42;;;;;;;10.68;2.03;;;;;;;;;;4884224;29;20063;-89
2022/12/31 10:36:11;;;;;;;5.13;1.70;;;;;;;;;;4899301;29;20173;-88
2022/12/31 10:38:49;;;;;;;6.82;2.22;;;;;;;;;;4883731;29;20052;-88
2022/12/31 10:42:10;;;;;;;9.85;2.17;;;12.80;99.90;;;;;;4887433;29;20525;-88
2022/12/31 10:44:39;;;;;;;5.72;1.45;;;;;;;;;;4827836;29;20519;-88
2022/12/31 10:47:19;;;;;;;3.17;1.55;;;;;;;;;;4877204;29;20055;-89
2022/12/31 10:50:09;;;;;;;12.38;2.60;;;;;;;;;;4902758;29;20056;-88
2022/12/31 10:52:35;;;;;;;4.82;1.83;;;;;;;;;;4867128;29;20052;-89
2022/12/31 10:55:16;;;;;;;11.82;2.45;;;;;;;;;;4902832;29;20056;-89
2022/12/31 10:57:42;;;;;;;5.13;1.88;;;;;;;;;;4887442;29;20048;-89
2022/12/31 11:00:15;;;;;;;2.00;1.83;;;;;;;;;;4887344;29;20091;-89
2022/12/31 11:02:56;;;;;;;5.93;2.38;;;;;;;;;;4902753;29;20068;-89
2022/12/31 11:05:33;;;;;;;6.28;1.83;;;;;;;;;;4903015;29;20045;-89
2022/12/31 11:08:08;;;;;;;5.35;2.60;;;;;;;;;;4887652;29;20397;-88
2022/12/31 11:10:37;;;;;;;7.82;2.55;;;;;;;;;;4886722;29;20552;-87
2022/12/31 11:13:23;;;;;;;7.95;2.42;;;;;;;;;;4887453;29;20482;-87
2022/12/31 11:15:49;;;;;;;5.80;2.45;;;;;;;;;;4902270;29;20107;-87
2022/12/31 11:18:34;;;;;;;9.95;2.78;;;;;;;;;;4886556;29;20112;-86
2022/12/31 11:21:10;;;;;;;10.20;2.47;;;;;;;;;;4902422;29;20055;-87
2022/12/31 11:23:49;;;;;;;10.55;2.88;;;;;;;;;;4902470;29;20084;-87
2022/12/31 11:26:21;;;;;;;14.38;3.40;;;;;;;;;;4886461;29;20059;-87
2022/12/31 11:28:53;;;;;;;8.88;3.30;;;;;;;;;;4886393;29;20055;-87
2022/12/31 11:31:20;;;;;;;9.10;2.75;;;;;;;;;;4886841;29;20086;-88
2022/12/31 11:33:49;;;;;;;14.40;3.97;;;;;;;;;;4901996;29;20058;-87
2022/12/31 11:36:32;;;;;;;7.57;2.88;;;;;;;;;;4902174;29;20060;-87
2022/12/31 11:38:58;;;;;;;8.70;2.67;;;;;;;;;;4886241;29;20135;-87
2022/12/31 11:41:32;;;;;;;8.85;2.65;;;;;;;;;;4902201;29;20048;-87
2022/12/31 11:44:11;;;;;;;12.52;3.08;;;;;;;;;;4886177;29;20084;-87
2022/12/31 11:46:37;;;;;;;9.50;2.47;;;;;;;;;;4886252;29;20052;-87
2022/12/31 11:49:03;;;;;;;7.97;2.63;;;;;;;;;;4886243;29;20513;-87
2022/12/31 11:51:43;;;;;;;9.02;2.63;;;;;;;;;;4901396;29;20134;-88
2022/12/31 11:54:28;;;;;;;15.05;3.25;;;;;;;;;;4885440;29;20609;-88
2022/12/31 11:57:13;;;;;;;11.98;3.92;;;;;;;;;;4884961;29;20067;-88
2022/12/31 11:59:39;;;;;;;11.27;3.47;;;;;;;;;;4885648;29;20068;-87
2022/12/31 12:02:34;;;;;;;8.50;2.30;;;13.20;99.90;;;;;;4884804;29;20144;-88
2022/12/31 12:05:02;;;;;;;7.72;3.20;;;;;;;;;;4900963;29;20052;-87
2022/12/31 12:07:29;;;;;;;4.70;1.92;;;;;;;;;;4885468;29;20131;-87
2022/12/31 12:09:57;;;;;;;6.50;2.15;;;;;;;;;;4885166;29;20134;-87
2022/12/31 12:12:23;;;;;;;3.95;1.73;;;;;;;;;;4900742;29;20048;-87
2022/12/31 12:14:52;;;;;;;8.13;2.20;;;;;;;;;;4885868;29;20052;-87
2022/12/31 12:17:38;;;;;;;6.85;2.13;;;;;;;;;;4900163;29;20051;-87
2022/12/31 12:20:15;;;;;;;5.75;1.90;;;;;;;;;;4900165;29;20067;-87
2022/12/31 12:22:58;;;;;;;5.88;2.53;;;;;;;;;;4884894;29;20052;-87
2022/12/31 12:25:25;;;;;;;6.35;2.67;;;;;;;;;;4900812;29;20063;-86
2022/12/31 12:27:52;;;;;;;5.65;2.42;;;;;;;;;;4900344;29;20048;-87
2022/12/31 12:30:23;;;;;;;5.78;1.88;;;;;;;;;;4900804;29;20104;-86
2022/12/31 12:33:00;;;;;;;7.05;2.28;;;;;;;;;;4916948;29;20501;-88
2022/12/31 12:35:31;;;;;;;10.32;2.60;;;;;;;;;;4900070;29;20048;-87
2022/12/31 12:38:12;;;;;;;9.63;3.22;;;;;;;;;;4900967;29;20087;-87
2022/12/31 12:40:38;;;;;;;12.02;3.55;;;;;;;;;;4899996;29;20573;-87
2022/12/31 12:43:05;;;;;;;11.40;2.47;;;;;;;;;;4901210;29;20098;-88
2022/12/31 12:45:42;;;;;;;6.05;2.65;;;;;;;;;;4885625;29;20125;-87
2022/12/31 12:48:17;;;;;;;8.80;2.60;;;;;;;;;;4900507;29;20409;-88
2022/12/31 12:50:45;;;;;;;13.23;2.67;;;;;;;;;;4885228;29;20504;-88
2022/12/31 12:53:29;;;;;;;12.47;2.50;;;;;;;;;;4846594;29;1199515;-88
2022/12/31 12:55:58;;;;;;;9.95;3.33;;;;;;;;;;4919738;29;20084;-88
2022/12/31 12:58:38;;;;;;;11.82;3.00;;;;;;;;;;4885211;29;20052;-88
2022/12/31 13:01:18;;;;;;;14.70;3.28;;;;;;;;;;4884978;29;20143;-88
2022/12/31 13:04:00;;;;;;;3.85;2.05;;;;;;;;;;4885303;29;20525;-88
2022/12/31 13:06:26;;;;;;;5.45;2.97;;;;;;;;;;4885333;29;20523;-88
2022/12/31 13:08:55;;;;;;;11.52;2.85;;;;;;;;;;4884908;29;20062;-87
2022/12/31 13:11:37;;;;;;;14.85;2.53;;;;;;;;;;4900875;29;20059;-87
2022/12/31 13:14:09;;;;;;;11.32;3.25;;;;;;;;;;4901704;29;20048;-87
2022/12/31 13:16:38;;;;;;;12.85;3.30;;;;;;;;;;4885774;29;20429;-87
2022/12/31 13:19:15;;;;;;;13.63;3.55;;;;;;;;;;4885699;29;20099;-88
2022/12/31 13:21:44;;;;;;;5.85;3.08;;;;;;;;;;4884832;29;20058;-88
2022/12/31 13:24:39;;;;;;;12.85;3.33;;;13.00;99.90;;;;;;4884998;29;20059;-88
2022/12/31 13:27:27;;;;;;;5.88;2.35;;;;;;;;;;4885101;29;20052;-88
2022/12/31 13:29:54;;;;;;;7.57;2.95;;;;;;;;;;4900572;29;20052;-88
2022/12/31 13:32:23;;;;;;;11.77;3.00;;;;;;;;;;4900465;29;20131;-88
2022/12/31 13:34:51;;;;;;;17.88;5.15;;;;;;;;;;4884692;29;20052;-88
2022/12/31 13:37:25;;;;;;;9.15;3.45;;;;;;;;;;4900441;29;20086;-88
2022/12/31 13:39:55;;;;;;;;;;;13.30;99.90;;;;;;4900497;29;20052;-88
2022/12/31 13:42:23;;;;;;;9.80;2.88;;;;;;;;;;4916933;29;19923;-87
2022/12/31 13:45:03;;;;;;;9.98;3.40;;;;;;;;;;4884861;29;20104;-87
2022/12/31 13:47:32;;;;;;;11.13;2.67;;;;;;;;;;4900288;29;20060;-87
2022/12/31 13:50:00;;;;;;;11.75;2.92;;;;;;;;;;4884363;29;20052;-87
2022/12/31 13:52:39;;;;;;;8.55;2.70;;;;;;;;;;4899881;29;20056;-87
2022/12/31 13:55:08;;;;;;;4.88;2.45;;;;;;;;;;4884110;29;20068;-88
2022/12/31 13:57:56;;;;;;;10.77;3.10;;;;;;;;;;4884512;29;20060;-88
2022/12/31 14:00:24;;;;;;;12.13;2.60;;;;;;;;;;4900006;29;20063;-88
2022/12/31 14:02:56;;;;;;;10.55;2.42;;;;;;;;;;4899728;29;20056;-88
2022/12/31 14:05:25;;;;;;;6.18;1.73;;;;;;;;;;4916884;29;20044;-87
2022/12/31 14:07:57;;;;;;;3.38;1.40;;;;;;;;;;4884581;29;20106;-88
2022/12/31 14:10:34;;;;;;;8.23;3.70;;;;;;;;;;4900091;29;20064;-87
2022/12/31 14:13:09;;;;;;;6.45;1.73;;;;;;;;;;4900202;29;20068;-87
2022/12/31 14:15:42;;;;;;;7.65;2.22;;;;;;;;;;4920330;29;20457;-89
2022/12/31 14:18:11;;;;;;;10.18;3.70;;;;;;;;;;4920082;29;20048;-88
2022/12/31 14:20:43;;;;;;;6.85;3.40;;;;;;;;;;4887635;29;20088;-88
2022/12/31 14:23:15;;;;;;;7.93;4.38;;;;;;;;;;4887917;29;20405;-86
2022/12/31 14:25:48;;;;;;;5.53;2.25;;;;;;;;;;4920374;29;20048;-88
2022/12/31 14:28:40;;;;;;;4.20;1.65;;;;;;;;;;4887509;29;20060;-87
2022/12/31 14:31:12;;;;;;;3.30;1.40;;;;;;;;;;4916603;29;20059;-88
2022/12/31 14:33:38;;;;;;;2.40;1.92;;;;;;;;;;4903161;29;20056;-88
2022/12/31 14:36:31;;;;;;;2.17;1.60;;;;;;;;;;4920191;29;20059;-88
2022/12/31 14:38:57;;;;;;;6.20;2.50;;;;;;;;;;4874684;29;20087;-85
2022/12/31 14:41:56;;;;;;;5.35;2.08;;;12.70;99.90;;;;;;4920181;29;20052;-86
2022/12/31 14:44:37;;;;;;;3.92;2.08;;;;;;;;;;4919686;29;20578;-87
2022/12/31 14:47:40;;;;;;;4.18;2.13;;;12.70;99.90;;;;;;4903606;29;20423;-85
2022/12/31 14:50:15;;;;;;;2.65;1.90;;;;;;;;;;4903114;29;20060;-86
2022/12/31 14:52:49;;;;;;;3.15;2.17;;;;;;;;;;4919835;29;20522;-86
2022/12/31 14:55:18;;;;;;;;;;;12.70;99.90;;;;;;4920279;29;20528;-86
2022/12/31 14:57:44;;;;;;;4.97;2.58;;;;;;;;;;4902456;29;19927;-86
2022/12/31 15:00:23;;;;;;;3.45;1.77;;;;;;;;;;4902734;29;20139;-85
2022/12/31 15:02:50;;;;;;;2.83;1.88;;;;;;;;;;4902717;29;20044;-85